createdAt,value
2022-08-02T00:01:02.984Z,1.42
2022-08-02T00:03:31.737Z,1.70
2022-08-02T00:06:01.477Z,1.70
2022-08-02T00:08:29.577Z,1.67
2022-08-02T00:11:00.226Z,1.40
2022-08-02T00:13:28.659Z,1.73
2022-08-02T00:15:56.639Z,1.58
2022-08-02T00:18:24.917Z,1.55
2022-08-02T00:20:53.068Z,1.42
2022-08-02T00:23:21.217Z,2.33
2022-08-02T00:25:55.419Z,1.77
2022-08-02T00:28:27.811Z,1.60
2022-08-02T00:34:27.275Z,1.35
2022-08-02T00:36:16.269Z,1.42
2022-08-02T00:38:44.711Z,1.50
2022-08-02T00:41:16.850Z,1.40
2022-08-02T00:43:47.338Z,1.40
2022-08-02T00:46:16.956Z,1.20
2022-08-02T00:48:45.492Z,1.77
2022-08-02T00:51:14.857Z,1.50
2022-08-02T00:53:43.296Z,1.17
2022-08-02T00:56:11.475Z,2.00
2022-08-02T00:58:39.993Z,1.65
2022-08-02T01:01:08.312Z,1.40
2022-08-02T01:03:36.481Z,1.40
2022-08-02T01:06:12.091Z,2.25
2022-08-02T01:08:41.403Z,1.40
2022-08-02T01:11:12.384Z,1.23
2022-08-02T01:13:40.717Z,1.30
2022-08-02T01:16:16.838Z,1.20
2022-08-02T01:18:51.597Z,1.50
2022-08-02T01:21:44.274Z,1.45
2022-08-02T01:24:59.594Z,1.27
2022-08-02T01:28:06.427Z,1.38
2022-08-02T01:30:36.633Z,1.25
2022-08-02T01:33:07.244Z,1.40
2022-08-02T01:35:47.177Z,1.30
2022-08-02T01:38:29.843Z,1.23
2022-08-02T01:41:00.228Z,1.25
2022-08-02T01:43:31.707Z,1.27
2022-08-02T01:46:01.886Z,1.10
2022-08-02T01:48:32.544Z,1.02
2022-08-02T01:51:03.165Z,1.13
2022-08-02T01:53:33.314Z,0.93
2022-08-02T01:56:03.659Z,0.90
2022-08-02T01:58:37.038Z,1.35
2022-08-02T02:01:08.429Z,1.17
2022-08-02T02:03:41.692Z,1.00
2022-08-02T02:06:12.046Z,1.23
2022-08-02T02:08:43.925Z,1.00
2022-08-02T02:12:11.039Z,1.27
2022-08-02T02:14:04.209Z,1.30
2022-08-02T02:16:33.795Z,0.90
2022-08-02T02:19:03.886Z,1.05
2022-08-02T02:21:32.235Z,1.02
2022-08-02T02:24:07.187Z,1.10
2022-08-02T02:26:49.308Z,1.02
2022-08-02T02:29:24.345Z,1.10
2022-08-02T02:31:55.666Z,1.33
2022-08-02T02:34:32.454Z,1.30
2022-08-02T02:37:05.316Z,1.13
2022-08-02T02:42:04.686Z,1.50
2022-08-02T02:44:36.037Z,1.08
2022-08-02T02:47:05.706Z,1.20
2022-08-02T02:49:35.564Z,1.58
2022-08-02T02:52:06.319Z,2.00
2022-08-02T02:54:36.786Z,1.38
2022-08-02T02:57:07.032Z,1.13
2022-08-02T02:59:36.543Z,1.33
2022-08-02T03:02:19.168Z,1.17
2022-08-02T03:04:56.012Z,1.48
2022-08-02T03:07:27.212Z,1.20
2022-08-02T03:09:55.680Z,1.40
2022-08-02T03:12:30.586Z,1.00
2022-08-02T03:15:08.030Z,1.40
2022-08-02T03:17:41.984Z,1.45
2022-08-02T03:20:16.181Z,1.30
2022-08-02T03:22:46.165Z,1.13
2022-08-02T03:25:16.532Z,1.27
2022-08-02T03:27:44.947Z,1.50
2022-08-02T03:30:14.915Z,1.10
2022-08-02T03:32:45.390Z,1.10
2022-08-02T03:35:22.861Z,1.10
2022-08-02T03:37:56.831Z,1.45
2022-08-02T03:40:28.007Z,1.10
2022-08-02T03:42:57.023Z,1.00
2022-08-02T03:45:27.895Z,0.90
2022-08-02T03:47:58.727Z,1.10
2022-08-02T03:50:28.257Z,1.17
2022-08-02T03:52:57.323Z,1.00
2022-08-02T03:55:25.480Z,1.63
2022-08-02T03:57:53.824Z,1.05
2022-08-02T04:00:23.453Z,2.80
2022-08-02T04:02:51.979Z,0.93
2022-08-02T04:05:20.753Z,2.08
2022-08-02T04:08:33.365Z,1.45
2022-08-02T04:10:56.666Z,1.10
2022-08-02T04:13:36.022Z,1.08
2022-08-02T04:16:12.963Z,1.05
2022-08-02T04:18:46.976Z,1.20
2022-08-02T04:21:17.905Z,0.80
2022-08-02T04:23:48.044Z,0.98
2022-08-02T04:26:19.070Z,0.90
2022-08-02T04:28:56.995Z,1.05
2022-08-02T04:31:26.866Z,0.90
2022-08-02T04:33:55.715Z,1.13
2022-08-02T04:36:31.576Z,0.98
2022-08-02T04:39:00.714Z,0.80
2022-08-02T04:41:43.731Z,1.13
2022-08-02T04:44:13.504Z,0.80
2022-08-02T04:46:43.464Z,0.90
2022-08-02T04:49:12.634Z,0.85
2022-08-02T04:51:43.025Z,0.80
2022-08-02T04:54:12.144Z,0.73
2022-08-02T04:56:40.750Z,0.90
2022-08-02T04:59:09.089Z,1.00
2022-08-02T05:01:37.134Z,0.93
2022-08-02T05:04:06.172Z,0.85
2022-08-02T05:06:34.671Z,0.63
2022-08-02T05:09:03.229Z,0.75
2022-08-02T05:11:36.507Z,0.95
2022-08-02T05:14:06.469Z,0.85
2022-08-02T05:16:34.555Z,1.20
2022-08-02T05:19:03.338Z,1.20
2022-08-02T05:21:32.140Z,0.85
2022-08-02T05:24:00.446Z,1.20
2022-08-02T05:26:28.684Z,1.08
2022-08-02T05:28:57.050Z,1.13
2022-08-02T05:31:25.111Z,1.00
2022-08-02T05:33:53.341Z,1.45
2022-08-02T05:36:22.118Z,0.98
2022-08-02T05:38:59.600Z,0.98
2022-08-02T05:41:33.899Z,1.52
2022-08-02T05:44:02.818Z,1.38
2022-08-02T05:46:31.087Z,1.00
2022-08-02T05:48:59.487Z,1.10
2022-08-02T05:51:38.496Z,1.27
2022-08-02T05:54:06.957Z,1.67
2022-08-02T05:56:45.819Z,1.35
2022-08-02T05:59:35.942Z,1.35
2022-08-02T06:02:12.356Z,1.08
2022-08-02T06:05:06.016Z,1.92
2022-08-02T06:07:37.050Z,1.60
2022-08-02T06:10:07.469Z,1.27
2022-08-02T06:12:48.611Z,1.30
2022-08-02T06:15:20.090Z,1.67
2022-08-02T06:17:48.518Z,1.55
2022-08-02T06:20:21.328Z,1.30
2022-08-02T06:22:50.598Z,1.38
2022-08-02T06:25:50.542Z,1.35
2022-08-02T06:28:10.383Z,2.00
2022-08-02T06:30:41.101Z,1.33
2022-08-02T06:33:09.237Z,1.45
2022-08-02T06:36:05.485Z,0.98
2022-08-02T06:38:42.288Z,1.30
2022-08-02T06:41:18.976Z,1.38
2022-08-02T06:44:26.302Z,1.35
2022-08-02T06:47:11.090Z,1.38
2022-08-02T06:49:52.953Z,1.90
2022-08-02T06:52:29.844Z,1.90
2022-08-02T06:55:01.563Z,1.65
2022-08-02T06:57:31.031Z,1.60
2022-08-02T07:00:05.257Z,1.60
2022-08-02T07:02:37.027Z,1.75
2022-08-02T07:05:05.597Z,2.08
2022-08-02T07:07:34.060Z,2.03
2022-08-02T07:10:02.427Z,2.10
2022-08-02T07:12:33.343Z,1.67
2022-08-02T07:15:03.575Z,1.75
2022-08-02T07:17:32.281Z,1.30
2022-08-02T07:20:01.109Z,0.98
2022-08-02T07:22:29.398Z,0.82
2022-08-02T07:25:00.375Z,0.93
2022-08-02T07:27:29.466Z,1.38
2022-08-02T07:29:58.056Z,1.85
2022-08-02T07:32:31.063Z,1.40
2022-08-02T07:35:01.484Z,1.27
2022-08-02T07:37:55.417Z,1.30
2022-08-02T07:40:27.164Z,1.75
2022-08-02T07:43:03.009Z,1.20
2022-08-02T07:45:35.797Z,1.10
2022-08-02T07:48:04.578Z,1.93
2022-08-02T07:50:32.748Z,2.83
2022-08-02T07:53:02.737Z,2.10
2022-08-02T07:55:39.541Z,2.00
2022-08-02T07:58:13.542Z,2.10
2022-08-02T08:00:44.302Z,2.22
2022-08-02T08:03:13.117Z,1.90
2022-08-02T08:05:41.536Z,1.40
2022-08-02T08:08:16.681Z,1.45
2022-08-02T08:10:47.004Z,2.00
2022-08-02T08:13:16.256Z,1.50
2022-08-02T08:15:51.522Z,1.90
2022-08-02T08:18:22.580Z,1.80
2022-08-02T08:20:52.106Z,1.60
2022-08-02T08:23:20.351Z,1.70
2022-08-02T08:25:48.879Z,1.17
2022-08-02T08:28:17.028Z,1.38
2022-08-02T08:30:45.097Z,1.20
2022-08-02T08:33:14.197Z,1.20
2022-08-02T08:35:42.319Z,1.10
2022-08-02T08:38:10.527Z,1.30
2022-08-02T08:40:39.118Z,1.00
2022-08-02T08:43:07.357Z,1.30
2022-08-02T08:45:35.729Z,1.40
2022-08-02T08:48:13.998Z,1.60
2022-08-02T08:50:53.978Z,2.17
2022-08-02T08:53:36.556Z,2.08
2022-08-02T08:56:06.267Z,1.77
2022-08-02T08:58:34.758Z,1.40
2022-08-02T09:01:03.098Z,1.73
2022-08-02T09:03:34.047Z,1.55
2022-08-02T09:06:03.637Z,1.95
2022-08-02T09:08:33.797Z,1.63
2022-08-02T09:11:02.088Z,2.10
2022-08-02T09:13:43.545Z,1.90
2022-08-02T09:16:14.661Z,1.98
2022-08-02T09:18:46.465Z,2.17
2022-08-02T09:21:17.377Z,2.00
2022-08-02T09:23:51.885Z,1.38
2022-08-02T09:26:22.658Z,1.42
2022-08-02T09:28:53.396Z,2.00
2022-08-02T09:31:23.798Z,1.83
2022-08-02T09:34:00.029Z,1.63
2022-08-02T09:36:38.917Z,1.50
2022-08-02T09:39:17.809Z,1.70
2022-08-02T09:41:46.221Z,1.52
2022-08-02T09:44:16.810Z,1.27
2022-08-02T09:46:46.898Z,1.50
2022-08-02T09:49:18.610Z,1.55
2022-08-02T09:51:46.999Z,1.30
2022-08-02T09:54:19.838Z,1.20
2022-08-02T09:56:50.772Z,1.48
2022-08-02T09:59:21.597Z,1.48
2022-08-02T10:01:51.226Z,1.65
2022-08-02T10:04:34.286Z,1.48
2022-08-02T10:07:05.390Z,1.58
2022-08-02T10:09:34.977Z,1.17
2022-08-02T10:12:04.804Z,1.20
2022-08-02T10:14:35.846Z,1.52
2022-08-02T10:17:05.477Z,1.83
2022-08-02T10:20:00.805Z,1.27
2022-08-02T10:22:24.825Z,1.35
2022-08-02T10:24:53.778Z,1.67
2022-08-02T10:27:26.144Z,1.40
2022-08-02T10:29:58.109Z,1.63
2022-08-02T10:32:42.466Z,1.50
2022-08-02T10:35:19.451Z,1.30
2022-08-02T10:37:58.708Z,1.05
2022-08-02T10:40:47.600Z,1.30
2022-08-02T10:43:43.387Z,1.40
2022-08-02T10:46:34.577Z,1.83
2022-08-02T10:49:38.024Z,1.15
2022-08-02T10:52:03.239Z,1.30
2022-08-02T10:54:42.178Z,1.40
2022-08-02T10:57:21.627Z,1.10
2022-08-02T10:59:52.986Z,1.30
2022-08-02T11:02:56.787Z,1.50
2022-08-02T11:05:43.007Z,1.67
2022-08-02T11:08:20.157Z,1.33
2022-08-02T11:10:48.935Z,1.63
2022-08-02T11:13:21.946Z,1.60
2022-08-02T11:15:57.616Z,1.60
2022-08-02T11:18:52.020Z,1.60
2022-08-02T11:21:29.249Z,1.20
2022-08-02T11:24:29.199Z,1.58
2022-08-02T11:26:59.506Z,1.55
2022-08-02T11:29:42.470Z,1.67
2022-08-02T11:32:30.642Z,1.60
2022-08-02T11:35:03.706Z,1.25
2022-08-02T11:37:38.167Z,1.38
2022-08-02T11:40:19.802Z,1.10
2022-08-02T11:42:54.007Z,0.90
2022-08-02T11:45:29.799Z,1.50
2022-08-02T11:47:58.526Z,0.93
2022-08-02T11:50:30.133Z,1.05
2022-08-02T11:52:59.280Z,1.20
2022-08-02T11:55:29.357Z,1.55
2022-08-02T11:58:05.675Z,1.33
2022-08-02T12:00:34.956Z,0.98
2022-08-02T12:03:03.488Z,1.85
2022-08-02T12:06:04.381Z,1.88
2022-08-02T12:08:25.537Z,1.55
2022-08-02T12:10:54.930Z,1.85
2022-08-02T12:13:23.844Z,1.02
2022-08-02T12:15:52.159Z,1.20
2022-08-02T12:18:41.589Z,1.35
2022-08-02T12:21:25.781Z,1.00
2022-08-02T12:23:59.623Z,1.20
2022-08-02T12:26:30.775Z,1.30
2022-08-02T12:28:59.749Z,1.40
2022-08-02T12:31:56.776Z,1.10
2022-08-02T12:34:31.447Z,1.35
2022-08-02T12:37:04.446Z,1.05
2022-08-02T12:39:44.509Z,1.98
2022-08-02T12:42:15.718Z,1.00
2022-08-02T12:44:56.326Z,1.10
2022-08-02T12:47:24.847Z,0.90
2022-08-02T12:50:20.963Z,1.10
2022-08-02T12:52:49.830Z,0.75
2022-08-02T12:55:26.167Z,1.10
2022-08-02T12:58:14.481Z,0.93
2022-08-02T13:00:44.548Z,0.90
2022-08-02T13:04:10.420Z,0.82
2022-08-02T13:06:12.200Z,0.70
2022-08-02T13:08:51.817Z,0.77
2022-08-02T13:11:20.617Z,0.70
2022-08-02T13:13:49.723Z,0.60
2022-08-02T13:16:17.959Z,1.02
2022-08-02T13:19:00.261Z,0.60
2022-08-02T13:21:41.023Z,0.43
2022-08-02T13:24:27.370Z,0.60
2022-08-02T13:27:08.340Z,0.63
2022-08-02T13:29:38.528Z,0.90
2022-08-02T13:32:06.853Z,0.90
2022-08-02T13:34:35.157Z,1.08
2022-08-02T13:37:04.892Z,0.70
2022-08-02T13:39:33.125Z,1.52
2022-08-02T13:42:01.307Z,0.75
2022-08-02T13:44:29.870Z,0.70
2022-08-02T13:46:58.422Z,0.90
2022-08-02T13:49:51.425Z,0.80
2022-08-02T13:52:15.416Z,0.82
2022-08-02T13:54:44.106Z,1.08
2022-08-02T13:57:12.267Z,1.05
2022-08-02T13:59:56.154Z,1.05
2022-08-02T14:02:29.567Z,1.02
2022-08-02T14:04:57.918Z,0.93
2022-08-02T14:07:26.135Z,0.68
2022-08-02T14:09:54.157Z,1.00
2022-08-02T14:12:22.599Z,0.73
2022-08-02T14:14:51.110Z,0.80
2022-08-02T14:17:19.186Z,0.70
2022-08-02T14:19:47.778Z,0.70
2022-08-02T14:22:16.068Z,0.68
2022-08-02T14:24:44.310Z,0.60
2022-08-02T14:27:12.938Z,0.68
2022-08-02T14:29:41.079Z,0.80
2022-08-02T14:32:09.588Z,0.80
2022-08-02T14:34:38.178Z,0.68
2022-08-02T14:37:06.334Z,0.70
2022-08-02T14:39:43.372Z,0.73
2022-08-02T14:42:22.997Z,0.65
2022-08-02T14:44:52.068Z,1.00
2022-08-02T14:47:20.179Z,0.75
2022-08-02T14:49:50.530Z,0.90
2022-08-02T14:52:19.768Z,0.77
2022-08-02T14:54:48.034Z,0.75
2022-08-02T14:57:16.470Z,0.57
2022-08-02T14:59:45.046Z,0.77
2022-08-02T15:02:14.027Z,1.42
2022-08-02T15:04:43.949Z,0.88
2022-08-02T15:07:14.560Z,0.90
2022-08-02T15:09:42.739Z,0.90
2022-08-02T15:12:12.738Z,1.00
2022-08-02T15:14:41.190Z,0.80
2022-08-02T15:17:09.737Z,1.08
2022-08-02T15:19:56.705Z,0.80
2022-08-02T15:22:27.893Z,1.10
2022-08-02T15:24:57.913Z,0.73
2022-08-02T15:27:26.277Z,0.82
2022-08-02T15:30:00.709Z,0.90
2022-08-02T15:32:29.581Z,1.10
2022-08-02T15:34:57.666Z,0.75
2022-08-02T15:37:30.946Z,0.90
2022-08-02T15:40:00.667Z,0.95
2022-08-02T15:42:30.766Z,0.80
2022-08-02T15:44:59.823Z,0.68
2022-08-02T15:47:28.493Z,1.02
2022-08-02T15:49:56.693Z,1.80
2022-08-02T15:52:27.401Z,0.95
2022-08-02T15:54:56.421Z,1.00
2022-08-02T15:57:35.346Z,1.10
2022-08-02T16:00:06.657Z,0.93
2022-08-02T16:02:48.057Z,0.88
2022-08-02T16:05:18.424Z,0.70
2022-08-02T16:07:46.948Z,0.80
2022-08-02T16:10:17.251Z,0.90
2022-08-02T16:12:45.703Z,0.80
2022-08-02T16:15:13.877Z,0.75
2022-08-02T16:17:54.501Z,1.00
2022-08-02T16:20:23.365Z,1.13
2022-08-02T16:22:51.507Z,0.95
2022-08-02T16:25:19.681Z,1.10
2022-08-02T16:27:57.778Z,1.08
2022-08-02T16:30:36.289Z,0.90
2022-08-02T16:33:04.909Z,1.10
2022-08-02T16:35:33.098Z,1.10
2022-08-02T16:38:01.286Z,1.48
2022-08-02T16:40:30.890Z,0.77
2022-08-02T16:43:00.340Z,0.88
2022-08-02T16:45:29.667Z,0.90
2022-08-02T16:48:05.200Z,0.90
2022-08-02T16:50:34.314Z,0.90
2022-08-02T16:53:07.317Z,0.85
2022-08-02T16:55:36.772Z,0.85
2022-08-02T16:58:05.340Z,1.08
2022-08-02T17:03:14.718Z,0.80
2022-08-02T17:05:56.285Z,0.95
2022-08-02T17:08:31.794Z,0.85
2022-08-02T17:11:03.850Z,0.90
2022-08-02T17:13:34.173Z,1.83
2022-08-02T17:16:26.066Z,1.38
2022-08-02T17:18:55.616Z,0.90
2022-08-02T17:21:24.084Z,1.40
2022-08-02T17:24:07.709Z,1.45
2022-08-02T17:26:38.247Z,1.00
2022-08-02T17:29:15.430Z,1.02
2022-08-02T17:32:05.528Z,1.00
2022-08-02T17:34:36.618Z,1.20
2022-08-02T17:37:06.351Z,1.27
2022-08-02T17:39:44.237Z,1.10
2022-08-02T17:42:23.668Z,0.90
2022-08-02T17:44:54.065Z,0.93
2022-08-02T17:47:23.357Z,0.80
2022-08-02T17:50:00.111Z,0.77
2022-08-02T17:52:51.063Z,1.10
2022-08-02T17:55:18.560Z,0.90
2022-08-02T17:57:57.417Z,1.13
2022-08-02T18:00:35.568Z,0.75
2022-08-02T18:03:10.063Z,0.93
2022-08-02T18:05:53.007Z,0.77
2022-08-02T18:08:23.836Z,0.98
2022-08-02T18:10:56.938Z,0.80
2022-08-02T18:13:25.840Z,0.80
2022-08-02T18:16:02.518Z,0.90
2022-08-02T18:18:32.388Z,0.88
2022-08-02T18:21:15.994Z,1.20
2022-08-02T18:23:58.151Z,0.98
2022-08-02T18:26:28.731Z,1.02
2022-08-02T18:28:58.992Z,1.13
2022-08-02T18:31:27.406Z,1.33
2022-08-02T18:34:01.965Z,1.23
2022-08-02T18:36:32.482Z,1.25
2022-08-02T18:39:07.950Z,1.13
2022-08-02T18:41:38.053Z,1.15
2022-08-02T18:44:06.620Z,1.17
2022-08-02T18:46:34.918Z,1.35
2022-08-02T18:49:13.300Z,1.23
2022-08-02T18:51:44.356Z,1.20
2022-08-02T18:54:12.971Z,1.23
2022-08-02T18:56:47.199Z,1.10
2022-08-02T18:59:17.262Z,1.02
2022-08-02T19:01:51.084Z,1.10
2022-08-02T19:04:27.208Z,1.05
2022-08-02T19:07:01.734Z,1.30
2022-08-02T19:09:40.264Z,0.93
2022-08-02T19:12:11.780Z,1.40
2022-08-02T19:14:41.271Z,1.40
2022-08-02T19:17:15.849Z,1.15
2022-08-02T19:19:58.807Z,1.52
2022-08-02T19:22:27.326Z,1.70
2022-08-02T19:25:00.956Z,1.10
2022-08-02T19:27:32.951Z,1.17
2022-08-02T19:30:07.650Z,1.10
2022-08-02T19:32:41.829Z,1.08
2022-08-02T19:35:30.996Z,1.35
2022-08-02T19:38:11.330Z,1.10
2022-08-02T19:40:42.206Z,1.30
2022-08-02T19:44:25.146Z,1.20
2022-08-02T19:46:00.609Z,1.92
2022-08-02T19:48:29.212Z,1.70
2022-08-02T19:51:01.220Z,2.00
2022-08-02T19:53:48.299Z,1.70
2022-08-02T19:56:25.550Z,1.40
2022-08-02T19:58:57.026Z,1.42
2022-08-02T20:01:36.585Z,1.67
2022-08-02T20:04:13.068Z,1.60
2022-08-02T20:06:49.327Z,1.50
2022-08-02T20:09:23.726Z,1.60
2022-08-02T20:12:03.014Z,1.40
2022-08-02T20:14:31.263Z,1.40
2022-08-02T20:17:00.339Z,1.55
2022-08-02T20:19:28.925Z,1.75
2022-08-02T20:22:00.560Z,1.65
2022-08-02T20:24:29.814Z,1.60
2022-08-02T20:26:59.366Z,1.60
2022-08-02T20:29:45.070Z,1.70
2022-08-02T20:32:22.656Z,1.50
2022-08-02T20:38:00.479Z,1.60
2022-08-02T20:40:27.976Z,1.10
2022-08-02T20:42:56.265Z,1.30
2022-08-02T20:45:27.074Z,3.28
2022-08-02T20:47:55.825Z,1.35
2022-08-02T20:50:50.871Z,1.27
2022-08-02T20:53:23.669Z,1.63
2022-08-02T20:55:55.327Z,1.42
2022-08-02T20:58:27.405Z,1.75
2022-08-02T21:01:00.138Z,1.10
2022-08-02T21:03:39.251Z,1.50
2022-08-02T21:06:09.869Z,1.30
2022-08-02T21:08:41.084Z,1.10
2022-08-02T21:11:12.721Z,1.00
2022-08-02T21:13:47.418Z,1.38
2022-08-02T21:16:30.561Z,1.13
2022-08-02T21:19:00.090Z,1.00
2022-08-02T21:21:30.046Z,1.35
2022-08-02T21:24:01.768Z,1.25
2022-08-02T21:26:32.178Z,1.13
2022-08-02T21:29:03.483Z,1.33
2022-08-02T21:31:36.157Z,1.23
2022-08-02T21:34:21.751Z,1.70
2022-08-02T21:36:55.243Z,1.15
2022-08-02T21:39:24.010Z,0.98
2022-08-02T21:41:52.009Z,1.33
2022-08-02T21:44:22.391Z,1.10
2022-08-02T21:46:53.211Z,1.00
2022-08-02T21:49:27.117Z,1.35
2022-08-02T21:52:11.654Z,1.58
2022-08-02T21:54:40.820Z,1.27
2022-08-02T21:57:15.563Z,1.10
2022-08-02T21:59:52.736Z,1.25
2022-08-02T22:02:30.674Z,1.40
2022-08-02T22:05:03.217Z,1.17
2022-08-02T22:07:38.387Z,1.40
2022-08-02T22:10:09.523Z,1.33
2022-08-02T22:12:38.498Z,1.33
2022-08-02T22:15:10.168Z,2.00
2022-08-02T22:17:52.893Z,1.90
2022-08-02T22:20:29.292Z,1.80
2022-08-02T22:22:58.046Z,1.58
2022-08-02T22:25:36.922Z,1.50
2022-08-02T22:28:38.256Z,1.52
2022-08-02T22:30:59.943Z,1.75
2022-08-02T22:34:00.148Z,1.83
2022-08-02T22:36:31.063Z,2.67
2022-08-02T22:39:00.029Z,2.33
2022-08-02T22:42:01.938Z,1.40
2022-08-02T22:44:18.378Z,1.60
2022-08-02T22:46:50.010Z,1.52
2022-08-02T22:49:38.117Z,1.35
2022-08-02T22:52:07.730Z,1.33
2022-08-02T22:54:36.302Z,1.52
2022-08-02T22:57:06.417Z,1.58
2022-08-02T22:58:55.697Z,1.33
2022-08-02T22:59:39.042Z,1.55
2022-08-02T23:02:09.925Z,1.77
2022-08-02T23:04:38.566Z,1.60
2022-08-02T23:07:06.603Z,1.70
2022-08-02T23:09:34.883Z,1.60
2022-08-02T23:12:03.464Z,1.35
2022-08-02T23:14:31.461Z,1.77
2022-08-02T23:17:18.203Z,1.60
2022-08-02T23:19:52.049Z,1.55
2022-08-02T23:22:29.376Z,1.42
2022-08-02T23:24:59.528Z,1.52
2022-08-02T23:27:28.680Z,2.08
2022-08-02T23:29:57.001Z,1.35
2022-08-02T23:32:26.222Z,1.50
2022-08-02T23:34:56.491Z,1.60
2022-08-02T23:37:25.793Z,1.20
2022-08-02T23:39:53.850Z,1.60
2022-08-02T23:42:25.423Z,1.33
2022-08-02T23:44:54.061Z,1.50
2022-08-02T23:47:22.292Z,1.38
2022-08-02T23:49:50.762Z,1.63
2022-08-02T23:52:19.126Z,1.40
2022-08-02T23:54:47.689Z,1.40
2022-08-02T23:57:20.743Z,1.42
2022-08-02T23:59:52.711Z,1.90
